createdAt,value
2023-05-06T00:00:41.725Z,14.0255
2023-05-06T00:01:44.475Z,14.0250
2023-05-06T00:02:47.610Z,13.9285
2023-05-06T00:03:50.250Z,13.8482
2023-05-06T00:04:53.088Z,13.8409
2023-05-06T00:05:55.611Z,13.8861
2023-05-06T00:06:58.174Z,13.9660
2023-05-06T00:08:00.756Z,14.3774
2023-05-06T00:09:03.369Z,14.8702
2023-05-06T00:10:05.926Z,14.2474
2023-05-06T00:12:11.971Z,14.0168
2023-05-06T00:13:14.606Z,13.8427
2023-05-06T00:14:17.207Z,13.8451
2023-05-06T00:15:19.798Z,13.8467
2023-05-06T00:16:22.365Z,13.7942
2023-05-06T00:17:24.933Z,13.8696
2023-05-06T00:18:27.474Z,13.8847
2023-05-06T00:19:30.080Z,13.8490
2023-05-06T00:20:36.468Z,13.8721
2023-05-06T00:21:39.035Z,13.9026
2023-05-06T00:22:41.909Z,13.8844
2023-05-06T00:23:44.464Z,13.8855
2023-05-06T00:24:47.020Z,13.8987
2023-05-06T00:25:49.555Z,13.9031
2023-05-06T00:26:52.102Z,13.9164
2023-05-06T00:27:54.472Z,13.9194
2023-05-06T00:28:57.021Z,13.9299
2023-05-06T00:29:59.575Z,13.9775
2023-05-06T00:31:02.121Z,14.0218
2023-05-06T00:32:04.969Z,14.0285
2023-05-06T00:33:07.572Z,14.0537
2023-05-06T00:34:10.149Z,14.0190
2023-05-06T00:35:36.123Z,13.9078
2023-05-06T00:36:31.358Z,13.8338
2023-05-06T00:37:34.047Z,13.7984
2023-05-06T00:39:40.245Z,13.7735
2023-05-06T00:40:42.805Z,13.7391
2023-05-06T00:41:45.343Z,13.7026
2023-05-06T00:42:47.906Z,13.6850
2023-05-06T00:43:50.502Z,13.6959
2023-05-06T00:44:53.251Z,13.7284
2023-05-06T00:45:55.835Z,13.8024
2023-05-06T00:46:58.356Z,13.8192
2023-05-06T00:48:00.909Z,13.8234
2023-05-06T00:49:03.200Z,13.8516
2023-05-06T00:50:05.794Z,13.8800
2023-05-06T00:51:08.378Z,13.8685
2023-05-06T00:52:10.952Z,13.8547
2023-05-06T00:53:18.787Z,13.8521
2023-05-06T00:54:21.296Z,13.8332
2023-05-06T00:55:23.839Z,13.8369
2023-05-06T00:56:26.404Z,13.8376
2023-05-06T00:57:28.945Z,13.8352
2023-05-06T00:58:31.512Z,13.8275
2023-05-06T01:00:35.967Z,13.8473
2023-05-06T01:01:38.600Z,13.9173
2023-05-06T01:02:47.485Z,13.9267
2023-05-06T01:03:42.286Z,13.9455
2023-05-06T01:04:44.948Z,13.9609
2023-05-06T01:05:47.504Z,13.9852
2023-05-06T01:06:50.072Z,13.9302
2023-05-06T01:07:52.636Z,13.9079
2023-05-06T01:08:55.234Z,13.8449
2023-05-06T01:09:58.328Z,13.7869
2023-05-06T01:11:00.578Z,13.7542
2023-05-06T01:12:03.162Z,13.7259
2023-05-06T01:13:05.785Z,13.6963
2023-05-06T01:15:11.999Z,13.6885
2023-05-06T01:16:14.640Z,13.7120
2023-05-06T01:17:17.377Z,13.7006
2023-05-06T01:18:19.942Z,13.7204
2023-05-06T01:19:22.503Z,13.7348
2023-05-06T01:20:25.042Z,13.7879
2023-05-06T01:21:27.607Z,13.7895
2023-05-06T01:22:29.902Z,13.8145
2023-05-06T01:23:32.479Z,13.8306
2023-05-06T01:24:35.067Z,13.8264
2023-05-06T01:25:37.638Z,13.8277
2023-05-06T01:26:40.215Z,13.8451
2023-05-06T01:27:42.492Z,13.8400
2023-05-06T01:28:45.073Z,13.8154
2023-05-06T01:29:47.688Z,13.7730
2023-05-06T01:30:50.277Z,13.7837
2023-05-06T01:31:52.828Z,13.7449
2023-05-06T01:32:55.161Z,13.7047
2023-05-06T01:33:57.703Z,13.7177
2023-05-06T01:35:00.234Z,13.6956
2023-05-06T01:36:02.788Z,13.6492
2023-05-06T01:37:05.336Z,13.6214
2023-05-06T01:38:07.937Z,13.5931
2023-05-06T01:39:10.466Z,13.5858
2023-05-06T01:40:13.049Z,13.6498
2023-05-06T01:41:15.627Z,13.6464
2023-05-06T01:42:18.189Z,13.6148
2023-05-06T01:43:20.706Z,13.5954
2023-05-06T01:44:23.277Z,13.5724
2023-05-06T01:45:26.458Z,13.5699
2023-05-06T01:46:29.019Z,13.5503
2023-05-06T01:47:31.594Z,13.5484
2023-05-06T01:48:34.367Z,13.5163
2023-05-06T01:49:36.920Z,13.5152
2023-05-06T01:50:39.706Z,13.4931
2023-05-06T01:51:42.278Z,13.4617
2023-05-06T01:52:44.823Z,13.4383
2023-05-06T01:53:47.594Z,13.4158
2023-05-06T01:54:50.174Z,13.3996
2023-05-06T01:56:54.567Z,13.3789
2023-05-06T01:57:57.075Z,13.3954
2023-05-06T01:59:00.058Z,13.4020
2023-05-06T02:00:02.714Z,13.4221
2023-05-06T02:01:05.474Z,13.4131
2023-05-06T02:02:08.104Z,13.3872
2023-05-06T02:03:10.709Z,13.3908
2023-05-06T02:04:17.126Z,13.4011
2023-05-06T02:06:27.177Z,13.3857
2023-05-06T02:07:29.709Z,13.3990
2023-05-06T02:08:32.321Z,13.4186
2023-05-06T02:09:34.879Z,13.4837
2023-05-06T02:10:37.224Z,14.0075
2023-05-06T02:11:39.817Z,14.3730
2023-05-06T02:12:42.418Z,14.2505
2023-05-06T02:13:44.921Z,14.0576
2023-05-06T02:14:47.738Z,13.9082
2023-05-06T02:15:50.338Z,13.8300
2023-05-06T02:16:52.893Z,13.7061
2023-05-06T02:17:55.491Z,13.6224
2023-05-06T02:18:57.799Z,13.5571
2023-05-06T02:20:01.163Z,13.5687
2023-05-06T02:21:03.724Z,13.5569
2023-05-06T02:22:06.289Z,13.5738
2023-05-06T02:23:08.849Z,13.5529
2023-05-06T02:24:12.129Z,13.5028
2023-05-06T02:25:14.706Z,13.5115
2023-05-06T02:26:17.296Z,13.5444
2023-05-06T02:27:19.878Z,13.5446
2023-05-06T02:28:22.558Z,13.5528
2023-05-06T02:29:25.275Z,13.5529
2023-05-06T02:30:27.817Z,13.5964
2023-05-06T02:31:30.720Z,13.6484
2023-05-06T02:32:33.270Z,13.6070
2023-05-06T02:33:35.839Z,13.5199
2023-05-06T02:34:38.389Z,13.4857
2023-05-06T02:35:40.988Z,13.4818
2023-05-06T02:36:43.597Z,13.4667
2023-05-06T02:38:47.900Z,13.4588
2023-05-06T02:39:50.473Z,13.4785
2023-05-06T02:40:53.033Z,13.4496
2023-05-06T02:41:55.380Z,13.4332
2023-05-06T02:42:57.787Z,13.4250
2023-05-06T02:43:58.435Z,13.3956
2023-05-06T02:45:00.991Z,13.4054
2023-05-06T02:46:03.587Z,13.4277
2023-05-06T02:47:06.126Z,13.4441
2023-05-06T02:48:08.695Z,13.4491
2023-05-06T02:49:11.246Z,13.4351
2023-05-06T02:50:13.849Z,13.3866
2023-05-06T02:51:16.437Z,13.3740
2023-05-06T02:52:19.051Z,13.3904
2023-05-06T02:53:21.578Z,13.3828
2023-05-06T02:54:27.581Z,13.3549
2023-05-06T02:55:30.141Z,13.3225
2023-05-06T02:56:32.711Z,13.3217
2023-05-06T02:57:35.308Z,13.3016
2023-05-06T02:58:38.113Z,13.2850
2023-05-06T02:59:40.736Z,13.2817
2023-05-06T03:00:43.309Z,13.2589
2023-05-06T03:01:45.627Z,13.2466
2023-05-06T03:02:48.305Z,13.2304
2023-05-06T03:03:50.961Z,13.2264
2023-05-06T03:04:53.542Z,13.2438
2023-05-06T03:06:59.697Z,13.2542
2023-05-06T03:08:02.303Z,13.2736
2023-05-06T03:09:05.371Z,13.2783
2023-05-06T03:10:08.014Z,13.2824
2023-05-06T03:11:10.649Z,13.2637
2023-05-06T03:12:10.812Z,13.2536
2023-05-06T03:13:13.471Z,13.2650
2023-05-06T03:14:16.071Z,13.2721
2023-05-06T03:15:18.462Z,13.2863
2023-05-06T03:16:28.120Z,13.2826
2023-05-06T03:17:30.497Z,13.2755
2023-05-06T03:18:33.063Z,13.2969
2023-05-06T03:19:35.672Z,13.3150
2023-05-06T03:20:38.264Z,13.3113
2023-05-06T03:21:40.893Z,13.3134
2023-05-06T03:22:43.430Z,13.3178
2023-05-06T03:23:46.047Z,13.3244
2023-05-06T03:24:48.666Z,13.2741
2023-05-06T03:25:51.265Z,13.2480
2023-05-06T03:26:54.395Z,13.2543
2023-05-06T03:27:57.046Z,13.2443
2023-05-06T03:28:59.900Z,13.2584
2023-05-06T03:30:02.473Z,13.2216
2023-05-06T03:32:08.732Z,13.2397
2023-05-06T03:33:11.312Z,13.2548
2023-05-06T03:34:13.883Z,13.2325
2023-05-06T03:35:16.467Z,13.1987
2023-05-06T03:36:19.292Z,13.2000
2023-05-06T03:37:21.908Z,13.1649
2023-05-06T03:38:24.469Z,13.1403
2023-05-06T03:39:27.062Z,13.1291
2023-05-06T03:40:29.626Z,13.1065
2023-05-06T03:41:32.223Z,13.0748
2023-05-06T03:42:35.047Z,13.0789
2023-05-06T03:43:37.674Z,13.0485
2023-05-06T03:44:40.504Z,13.0330
2023-05-06T03:45:43.166Z,13.0024
2023-05-06T03:46:45.496Z,12.9995
2023-05-06T03:47:48.381Z,13.0016
2023-05-06T03:48:51.273Z,13.0295
2023-05-06T03:49:53.852Z,13.0372
2023-05-06T03:50:56.760Z,13.0826
2023-05-06T03:51:59.332Z,13.0911
2023-05-06T03:53:01.924Z,13.0663
2023-05-06T03:54:04.846Z,13.0584
2023-05-06T03:55:07.566Z,13.1076
2023-05-06T03:56:10.573Z,13.0880
2023-05-06T03:57:13.158Z,13.0702
2023-05-06T03:58:15.775Z,13.0511
2023-05-06T03:59:18.708Z,13.0536
2023-05-06T04:00:21.039Z,13.0271
2023-05-06T04:01:23.667Z,13.0010
2023-05-06T04:03:29.946Z,12.9893
2023-05-06T04:04:30.670Z,12.9719
2023-05-06T04:05:33.294Z,12.9758
2023-05-06T04:06:35.891Z,12.9700
2023-05-06T04:07:38.209Z,12.9739
2023-05-06T04:08:40.868Z,12.9857
2023-05-06T04:09:43.442Z,12.9951
2023-05-06T04:10:46.037Z,13.0160
2023-05-06T04:11:48.619Z,13.0346
2023-05-06T04:12:51.225Z,13.0325
2023-05-06T04:13:53.849Z,13.0495
2023-05-06T04:14:56.437Z,13.0979
2023-05-06T04:15:59.057Z,13.1290
2023-05-06T04:17:01.636Z,13.1280
2023-05-06T04:18:03.980Z,13.1391
2023-05-06T04:19:06.783Z,13.1302
2023-05-06T04:20:09.312Z,13.1375
2023-05-06T04:21:35.473Z,13.1411
2023-05-06T04:22:30.741Z,13.1624
2023-05-06T04:23:33.336Z,13.1715
2023-05-06T04:24:39.581Z,13.1936
2023-05-06T04:25:42.007Z,13.3472
2023-05-06T04:26:44.587Z,13.6959
2023-05-06T04:27:46.905Z,14.0242
2023-05-06T04:28:49.491Z,13.6787
2023-05-06T04:29:52.090Z,13.4750
2023-05-06T04:30:54.678Z,13.4833
2023-05-06T04:31:57.273Z,13.7405
2023-05-06T04:33:00.222Z,13.5853
2023-05-06T04:34:02.787Z,13.4298
2023-05-06T04:35:05.393Z,13.3426
2023-05-06T04:36:08.219Z,13.2993
2023-05-06T04:37:10.862Z,13.2337
2023-05-06T04:38:13.477Z,13.2642
2023-05-06T04:39:16.096Z,13.2271
2023-05-06T04:40:18.666Z,13.1995
2023-05-06T04:41:21.482Z,13.2165
2023-05-06T04:42:24.107Z,13.2430
2023-05-06T04:43:26.716Z,13.2216
2023-05-06T04:44:29.325Z,13.2264
2023-05-06T04:45:31.939Z,13.2597
2023-05-06T04:47:34.845Z,13.2367
2023-05-06T04:48:45.170Z,13.5559
2023-05-06T04:49:47.792Z,13.8324
2023-05-06T04:50:50.622Z,13.8386
2023-05-06T04:51:53.185Z,13.8798
2023-05-06T04:52:55.804Z,13.9068
2023-05-06T04:53:58.386Z,13.8795
2023-05-06T04:55:01.013Z,13.8236
2023-05-06T04:56:03.638Z,13.7524
2023-05-06T04:57:06.469Z,13.6847
2023-05-06T04:58:09.091Z,13.6101
2023-05-06T04:59:11.712Z,13.6575
2023-05-06T05:00:14.296Z,13.6553
2023-05-06T05:01:16.942Z,13.6495
2023-05-06T05:02:19.294Z,13.6039
2023-05-06T05:03:21.958Z,13.6879
2023-05-06T05:04:24.700Z,13.6709
2023-05-06T05:05:27.311Z,13.6637
2023-05-06T05:06:29.947Z,13.5829
2023-05-06T05:07:32.570Z,13.5570
2023-05-06T05:08:35.185Z,13.5785
2023-05-06T05:09:37.834Z,13.5883
2023-05-06T05:10:40.462Z,13.5913
2023-05-06T05:11:42.951Z,13.6360
2023-05-06T05:12:45.585Z,13.7394
2023-05-06T05:13:48.120Z,13.8862
2023-05-06T05:14:50.738Z,14.0787
2023-05-06T05:15:53.327Z,14.2158
2023-05-06T05:16:56.101Z,14.2554
2023-05-06T05:17:58.481Z,14.3036
2023-05-06T05:19:03.330Z,14.3341
2023-05-06T05:20:02.818Z,14.3965
2023-05-06T05:21:05.444Z,14.5336
2023-05-06T05:22:08.067Z,14.5490
2023-05-06T05:23:10.392Z,14.6879
2023-05-06T05:24:13.472Z,14.7470
2023-05-06T05:25:16.067Z,14.8015
2023-05-06T05:26:18.685Z,14.9696
2023-05-06T05:27:21.289Z,14.9908
2023-05-06T05:28:23.922Z,14.8862
2023-05-06T05:29:26.593Z,14.9863
2023-05-06T05:30:29.234Z,15.0524
2023-05-06T05:31:31.869Z,15.2051
2023-05-06T05:32:34.473Z,15.3799
2023-05-06T05:33:37.156Z,15.2923
2023-05-06T05:34:39.797Z,15.2315
2023-05-06T05:35:42.364Z,14.9402
2023-05-06T05:36:44.976Z,15.0048
2023-05-06T05:37:47.588Z,15.1363
2023-05-06T05:38:50.212Z,15.1195
2023-05-06T05:39:52.628Z,14.8707
2023-05-06T05:40:55.231Z,14.6842
2023-05-06T05:41:57.885Z,14.6520
2023-05-06T05:43:00.484Z,14.6961
2023-05-06T05:44:03.101Z,14.6544
2023-05-06T05:45:12.772Z,14.5098
2023-05-06T05:46:08.097Z,14.6138
2023-05-06T05:47:10.663Z,14.4371
2023-05-06T05:48:13.269Z,14.5279
2023-05-06T05:49:15.916Z,14.8432
2023-05-06T05:50:18.575Z,14.8703
2023-05-06T05:51:48.937Z,14.9398
2023-05-06T05:52:44.247Z,15.3055
2023-05-06T05:53:46.948Z,15.3267
2023-05-06T05:54:49.554Z,15.1922
2023-05-06T05:55:52.225Z,15.1094
2023-05-06T05:56:54.595Z,14.9936
2023-05-06T05:57:57.166Z,15.0259
2023-05-06T05:58:59.882Z,15.0665
2023-05-06T06:00:02.535Z,15.1089
2023-05-06T06:01:06.456Z,15.1730
2023-05-06T06:02:09.119Z,15.0959
2023-05-06T06:03:11.826Z,15.2288
2023-05-06T06:04:14.491Z,15.3554
2023-05-06T06:05:17.160Z,15.2945
2023-05-06T06:06:19.862Z,15.2049
2023-05-06T06:07:22.486Z,15.5960
2023-05-06T06:08:25.123Z,16.4868
2023-05-06T06:09:28.100Z,16.8181
2023-05-06T06:10:30.741Z,16.4218
2023-05-06T06:11:33.360Z,16.6389
2023-05-06T06:12:36.024Z,16.8968
2023-05-06T06:13:38.803Z,16.8489
2023-05-06T06:14:41.437Z,16.7422
2023-05-06T06:16:44.844Z,16.8048
2023-05-06T06:17:55.061Z,16.2482
2023-05-06T06:18:57.734Z,15.9773
2023-05-06T06:20:00.357Z,15.7090
2023-05-06T06:21:03.023Z,15.6191
2023-05-06T06:23:09.274Z,15.5444
2023-05-06T06:24:11.897Z,15.5195
2023-05-06T06:25:14.497Z,15.5484
2023-05-06T06:26:17.070Z,15.5913
2023-05-06T06:27:19.721Z,15.7434
2023-05-06T06:28:22.378Z,15.8747
2023-05-06T06:29:25.036Z,15.9231
2023-05-06T06:30:27.619Z,15.9179
2023-05-06T06:31:30.222Z,15.9837
2023-05-06T06:32:32.856Z,16.0249
2023-05-06T06:33:35.449Z,15.7201
2023-05-06T06:34:38.079Z,15.5665
2023-05-06T06:35:40.728Z,15.3447
2023-05-06T06:36:43.354Z,15.1199
2023-05-06T06:37:45.947Z,15.0898
2023-05-06T06:38:48.791Z,15.1164
2023-05-06T06:39:51.479Z,15.3986
2023-05-06T06:40:54.141Z,15.5112
2023-05-06T06:41:56.804Z,15.5051
2023-05-06T06:42:59.387Z,15.6648
2023-05-06T06:44:02.015Z,15.8144
2023-05-06T06:45:04.890Z,15.8377
2023-05-06T06:46:07.536Z,16.0040
2023-05-06T06:47:10.156Z,16.0357
2023-05-06T06:48:12.766Z,15.9644
2023-05-06T06:49:15.393Z,15.9268
2023-05-06T06:50:18.042Z,15.7880
2023-05-06T06:51:20.673Z,15.9119
2023-05-06T06:53:25.128Z,15.9892
2023-05-06T06:54:27.750Z,15.8744
2023-05-06T06:55:30.342Z,15.8904
2023-05-06T06:56:32.977Z,15.6050
2023-05-06T06:57:35.568Z,15.4151
2023-05-06T06:58:38.378Z,15.5773
2023-05-06T06:59:41.023Z,15.6807
2023-05-06T07:00:43.626Z,15.7297
2023-05-06T07:01:46.279Z,15.6438
2023-05-06T07:02:48.935Z,15.6469
2023-05-06T07:03:51.533Z,15.5343
2023-05-06T07:04:54.211Z,15.4159
2023-05-06T07:06:57.096Z,15.3639
2023-05-06T07:07:59.685Z,16.0434
2023-05-06T07:09:02.307Z,16.3371
2023-05-06T07:10:04.921Z,16.6368
2023-05-06T07:11:07.522Z,16.8553
2023-05-06T07:12:10.660Z,16.7554
2023-05-06T07:13:13.287Z,16.3115
2023-05-06T07:14:23.467Z,15.7599
2023-05-06T07:15:18.745Z,15.7642
2023-05-06T07:16:21.405Z,15.8846
2023-05-06T07:17:24.105Z,15.8899
2023-05-06T07:18:27.615Z,15.8379
2023-05-06T07:19:30.238Z,16.2212
2023-05-06T07:20:32.887Z,16.6287
2023-05-06T07:21:35.556Z,16.9260
2023-05-06T07:22:38.201Z,16.6899
2023-05-06T07:23:40.807Z,16.5600
2023-05-06T07:24:43.456Z,16.6499
2023-05-06T07:25:46.061Z,17.0297
2023-05-06T07:26:48.703Z,17.3530
2023-05-06T07:27:51.448Z,17.3668
2023-05-06T07:28:54.081Z,18.3609
2023-05-06T07:29:56.690Z,18.3334
2023-05-06T07:30:59.596Z,19.4328
2023-05-06T07:32:02.185Z,19.9473
2023-05-06T07:33:04.809Z,19.9159
2023-05-06T07:34:07.415Z,19.1111
2023-05-06T07:35:10.279Z,19.6163
2023-05-06T07:36:13.113Z,19.3113
2023-05-06T07:37:15.758Z,18.1123
2023-05-06T07:38:18.323Z,17.4442
2023-05-06T07:39:20.964Z,17.5902
2023-05-06T07:40:23.667Z,17.6225
2023-05-06T07:41:26.259Z,17.6104
2023-05-06T07:42:28.855Z,17.3157
2023-05-06T07:43:31.460Z,17.7026
2023-05-06T07:44:34.286Z,18.4318
2023-05-06T07:45:36.869Z,18.8267
2023-05-06T07:46:39.505Z,19.2442
2023-05-06T07:47:42.196Z,19.2616
2023-05-06T07:48:44.796Z,19.3829
2023-05-06T07:49:47.659Z,18.9410
2023-05-06T07:50:50.286Z,18.4421
2023-05-06T07:51:53.186Z,18.7971
2023-05-06T07:52:55.859Z,19.7117
2023-05-06T07:53:58.554Z,19.8760
2023-05-06T07:55:01.134Z,19.8560
2023-05-06T07:56:03.755Z,20.5506
2023-05-06T07:57:06.626Z,20.5043
2023-05-06T07:58:09.202Z,20.7985
2023-05-06T07:59:12.099Z,20.6056
2023-05-06T08:00:14.749Z,20.5462
2023-05-06T08:01:17.400Z,20.7232
2023-05-06T08:02:17.903Z,21.4783
2023-05-06T08:03:20.643Z,21.5933
2023-05-06T08:04:23.387Z,21.1134
2023-05-06T08:05:26.032Z,20.5325
2023-05-06T08:06:28.618Z,19.7275
2023-05-06T08:07:31.240Z,20.7661
2023-05-06T08:08:33.860Z,21.6666
2023-05-06T08:09:36.494Z,21.8639
2023-05-06T08:10:39.111Z,22.5417
2023-05-06T08:11:41.738Z,21.9679
2023-05-06T08:12:44.397Z,22.4739
2023-05-06T08:13:46.975Z,21.4990
2023-05-06T08:14:50.125Z,22.4028
2023-05-06T08:15:52.753Z,22.8920
2023-05-06T08:16:55.387Z,22.7401
2023-05-06T08:18:02.185Z,22.5686
2023-05-06T08:18:59.225Z,22.8817
2023-05-06T08:20:01.935Z,23.5546
2023-05-06T08:21:04.573Z,23.6116
2023-05-06T08:22:07.178Z,23.1091
2023-05-06T08:23:09.795Z,22.7574
2023-05-06T08:24:12.524Z,22.2026
2023-05-06T08:25:15.033Z,21.6916
2023-05-06T08:26:17.655Z,20.8465
2023-05-06T08:27:20.228Z,20.6764
2023-05-06T08:28:24.675Z,20.5897
2023-05-06T08:29:24.283Z,22.2262
2023-05-06T08:30:26.942Z,22.8110
2023-05-06T08:31:29.543Z,23.3036
2023-05-06T08:32:32.713Z,23.2615
2023-05-06T08:33:35.330Z,23.4672
2023-05-06T08:34:37.914Z,22.5521
2023-05-06T08:35:41.037Z,21.8501
2023-05-06T08:36:43.619Z,23.2723
2023-05-06T08:37:46.238Z,23.9217
2023-05-06T08:38:48.888Z,22.6982
2023-05-06T08:39:51.508Z,23.0736
2023-05-06T08:40:54.076Z,21.4456
2023-05-06T08:41:56.678Z,20.4736
2023-05-06T08:42:59.277Z,20.2402
2023-05-06T08:44:01.910Z,19.5712
2023-05-06T08:45:04.543Z,19.0548
2023-05-06T08:46:07.217Z,19.7193
2023-05-06T08:47:10.024Z,20.5933
2023-05-06T08:48:12.827Z,20.5952
2023-05-06T08:49:15.451Z,20.2529
2023-05-06T08:50:18.059Z,20.6692
2023-05-06T08:51:20.679Z,20.8943
2023-05-06T08:52:23.338Z,20.7012
2023-05-06T08:53:25.920Z,20.9744
2023-05-06T08:54:28.642Z,20.3632
2023-05-06T08:55:31.266Z,20.6163
2023-05-06T08:56:33.892Z,20.9852
2023-05-06T08:57:36.508Z,21.0886
2023-05-06T08:58:39.087Z,21.1425
2023-05-06T08:59:41.977Z,22.2103
2023-05-06T09:00:44.601Z,23.0343
2023-05-06T09:01:47.071Z,23.8735
2023-05-06T09:03:50.234Z,22.7032
2023-05-06T09:04:53.578Z,23.2356
2023-05-06T09:05:56.169Z,22.7459
2023-05-06T09:06:58.649Z,22.6603
2023-05-06T09:08:01.310Z,23.3155
2023-05-06T09:09:03.937Z,22.9753
2023-05-06T09:10:06.538Z,23.6711
2023-05-06T09:11:09.157Z,24.1625
2023-05-06T09:12:11.784Z,23.8639
2023-05-06T09:13:14.392Z,23.6829
2023-05-06T09:14:17.075Z,23.7666
2023-05-06T09:15:19.873Z,23.5587
2023-05-06T09:16:22.721Z,24.6307
2023-05-06T09:17:25.462Z,25.8757
2023-05-06T09:18:28.068Z,24.9518
2023-05-06T09:19:30.734Z,22.7667
2023-05-06T09:20:33.348Z,23.1371
2023-05-06T09:21:35.955Z,23.9331
2023-05-06T09:22:38.616Z,23.5521
2023-05-06T09:23:41.276Z,22.5229
2023-05-06T09:24:43.906Z,23.1667
2023-05-06T09:25:46.525Z,24.1205
2023-05-06T09:26:49.132Z,24.0479
2023-05-06T09:27:51.756Z,22.4404
2023-05-06T09:28:54.330Z,23.4933
2023-05-06T09:29:54.832Z,24.3653
2023-05-06T09:30:57.459Z,22.5760
2023-05-06T09:32:00.061Z,22.1575
2023-05-06T09:33:02.706Z,21.3737
2023-05-06T09:34:05.320Z,21.1712
2023-05-06T09:35:07.975Z,21.2925
2023-05-06T09:36:10.706Z,21.1697
2023-05-06T09:37:13.332Z,21.1557
2023-05-06T09:38:15.912Z,20.8770
2023-05-06T09:39:18.578Z,22.1577
2023-05-06T09:40:21.250Z,22.8865
2023-05-06T09:41:23.608Z,23.0896
2023-05-06T09:42:26.231Z,22.2114
2023-05-06T09:43:28.893Z,21.5982
2023-05-06T09:44:31.461Z,21.6448
2023-05-06T09:45:34.071Z,22.4564
2023-05-06T09:46:36.722Z,21.9734
2023-05-06T09:47:39.410Z,21.7188
2023-05-06T09:48:42.032Z,22.2361
2023-05-06T09:49:44.650Z,22.4222
2023-05-06T09:50:47.320Z,22.3821
2023-05-06T09:51:49.919Z,22.3383
2023-05-06T09:52:52.562Z,21.3795
2023-05-06T09:53:55.211Z,21.3897
2023-05-06T09:54:57.876Z,21.7515
2023-05-06T09:56:00.530Z,21.5883
2023-05-06T09:57:03.285Z,20.8253
2023-05-06T09:58:05.957Z,20.6268
2023-05-06T09:59:08.620Z,21.5477
2023-05-06T10:00:11.289Z,22.7060
2023-05-06T10:01:19.250Z,23.5566
2023-05-06T10:02:15.284Z,23.5194
2023-05-06T10:03:18.155Z,22.9010
2023-05-06T10:04:21.379Z,23.1114
2023-05-06T10:05:21.701Z,24.0440
2023-05-06T10:06:24.289Z,25.2739
2023-05-06T10:07:27.175Z,25.1882
2023-05-06T10:08:29.812Z,25.2350
2023-05-06T10:09:32.715Z,24.9323
2023-05-06T10:10:35.421Z,25.5067
2023-05-06T10:11:38.081Z,25.1924
2023-05-06T10:12:38.787Z,24.3927
2023-05-06T10:13:41.428Z,23.7530
2023-05-06T10:14:44.203Z,23.3048
2023-05-06T10:15:46.927Z,21.9916
2023-05-06T10:16:49.583Z,21.8785
2023-05-06T10:17:52.252Z,21.5832
2023-05-06T10:18:54.860Z,21.8941
2023-05-06T10:19:57.648Z,22.0389
2023-05-06T10:21:00.252Z,22.4561
2023-05-06T10:22:05.537Z,23.9063
2023-05-06T10:23:04.606Z,24.7064
2023-05-06T10:24:07.295Z,25.1720
2023-05-06T10:25:10.165Z,25.7255
2023-05-06T10:26:12.946Z,25.7560
2023-05-06T10:27:15.574Z,25.4313
2023-05-06T10:28:24.666Z,23.6411
2023-05-06T10:29:19.483Z,23.7295
2023-05-06T10:30:22.334Z,23.5461
2023-05-06T10:31:25.041Z,24.4634
2023-05-06T10:32:27.663Z,25.0220
2023-05-06T10:33:30.347Z,24.8387
2023-05-06T10:34:33.048Z,24.6068
2023-05-06T10:35:35.752Z,24.2752
2023-05-06T10:36:38.393Z,24.6010
2023-05-06T10:37:41.052Z,25.2075
2023-05-06T10:38:43.715Z,25.1979
2023-05-06T10:39:46.495Z,25.0371
2023-05-06T10:40:49.154Z,24.8472
2023-05-06T10:42:52.654Z,25.3486
2023-05-06T10:43:55.263Z,25.0511
2023-05-06T10:44:57.896Z,25.6338
2023-05-06T10:46:00.803Z,24.9315
2023-05-06T10:47:03.458Z,24.1604
2023-05-06T10:48:06.103Z,24.0571
2023-05-06T10:49:08.758Z,23.8167
2023-05-06T10:50:11.381Z,23.2412
2023-05-06T10:51:14.028Z,23.4248
2023-05-06T10:52:16.668Z,24.5834
2023-05-06T10:53:19.300Z,23.2492
2023-05-06T10:54:21.955Z,24.3970
2023-05-06T10:55:24.654Z,25.0221
2023-05-06T10:56:27.341Z,24.3032
2023-05-06T10:57:29.988Z,24.3117
2023-05-06T10:58:32.617Z,24.5438
2023-05-06T10:59:35.328Z,23.6108
2023-05-06T11:00:37.968Z,23.2802
2023-05-06T11:01:40.733Z,23.2583
2023-05-06T11:02:44.966Z,22.3405
2023-05-06T11:03:45.851Z,22.1139
2023-05-06T11:04:46.392Z,22.3535
2023-05-06T11:05:49.054Z,22.2249
2023-05-06T11:06:51.729Z,23.1484
2023-05-06T11:07:54.353Z,23.4704
2023-05-06T11:08:57.093Z,22.8358
2023-05-06T11:09:59.778Z,23.8458
2023-05-06T11:11:02.470Z,24.0830
2023-05-06T11:12:05.113Z,23.2806
2023-05-06T11:13:07.849Z,22.0843
2023-05-06T11:14:10.502Z,22.3213
2023-05-06T11:15:13.157Z,23.1584
2023-05-06T11:16:15.877Z,23.7883
2023-05-06T11:17:18.897Z,23.7599
2023-05-06T11:18:21.562Z,24.0519
2023-05-06T11:19:24.216Z,24.1628
2023-05-06T11:20:26.919Z,24.1713
2023-05-06T11:21:29.566Z,23.1782
2023-05-06T11:22:32.678Z,22.9438
2023-05-06T11:23:35.352Z,22.4916
2023-05-06T11:24:38.013Z,22.2825
2023-05-06T11:25:40.605Z,22.9570
2023-05-06T11:26:43.927Z,22.6307
2023-05-06T11:27:46.982Z,22.2412
2023-05-06T11:28:46.887Z,22.4377
2023-05-06T11:29:49.592Z,23.1919
2023-05-06T11:30:52.274Z,22.5204
2023-05-06T11:31:54.866Z,22.7142
2023-05-06T11:32:57.622Z,22.9457
2023-05-06T11:34:00.261Z,23.3284
2023-05-06T11:35:02.986Z,23.5363
2023-05-06T11:36:13.148Z,23.3659
2023-05-06T11:37:15.832Z,22.3974
2023-05-06T11:38:18.499Z,23.1897
2023-05-06T11:39:21.129Z,23.6923
2023-05-06T11:40:23.814Z,23.5679
2023-05-06T11:41:26.544Z,23.7000
2023-05-06T11:42:29.405Z,23.5384
2023-05-06T11:43:32.047Z,23.9245
2023-05-06T11:44:34.703Z,24.5968
2023-05-06T11:45:37.576Z,24.8723
2023-05-06T11:46:40.288Z,24.2867
2023-05-06T11:47:43.538Z,23.8844
2023-05-06T11:48:46.207Z,23.2806
2023-05-06T11:49:48.915Z,23.8249
2023-05-06T11:50:51.553Z,23.7041
2023-05-06T11:51:54.221Z,23.5935
2023-05-06T11:52:56.872Z,23.4434
2023-05-06T11:53:59.679Z,23.3435
2023-05-06T11:55:02.592Z,23.9944
2023-05-06T11:56:05.242Z,24.0131
2023-05-06T11:57:08.464Z,23.5546
2023-05-06T11:58:11.117Z,23.1744
2023-05-06T11:59:13.770Z,23.1945
2023-05-06T12:00:16.442Z,23.1119
2023-05-06T12:01:19.083Z,23.1927
2023-05-06T12:02:21.887Z,23.2868
2023-05-06T12:03:24.745Z,22.6352
2023-05-06T12:04:27.586Z,22.2174
2023-05-06T12:05:30.588Z,21.5645
2023-05-06T12:06:33.275Z,21.6434
2023-05-06T12:07:36.074Z,21.9354
2023-05-06T12:08:38.930Z,23.1413
2023-05-06T12:09:41.582Z,23.9928
2023-05-06T12:10:44.238Z,24.5957
2023-05-06T12:11:46.881Z,25.0982
2023-05-06T12:12:49.606Z,24.8468
2023-05-06T12:13:52.207Z,24.3594
2023-05-06T12:14:54.893Z,24.8915
2023-05-06T12:15:57.599Z,24.8896
2023-05-06T12:17:00.253Z,25.3638
2023-05-06T12:18:03.166Z,23.7809
2023-05-06T12:19:05.800Z,24.8007
2023-05-06T12:20:08.564Z,24.9950
2023-05-06T12:21:11.246Z,24.5090
2023-05-06T12:22:13.935Z,25.3833
2023-05-06T12:23:16.641Z,25.4610
2023-05-06T12:24:19.383Z,25.4986
2023-05-06T12:25:22.035Z,25.1692
2023-05-06T12:26:24.818Z,25.7502
2023-05-06T12:27:27.424Z,26.2946
2023-05-06T12:28:30.104Z,26.2013
2023-05-06T12:29:32.725Z,26.1632
2023-05-06T12:30:35.846Z,26.5069
2023-05-06T12:31:38.493Z,26.3504
2023-05-06T12:32:41.183Z,26.0383
2023-05-06T12:33:43.865Z,25.8303
2023-05-06T12:34:46.498Z,25.1403
2023-05-06T12:35:49.186Z,25.3987
2023-05-06T12:36:51.848Z,26.0125
2023-05-06T12:37:54.499Z,26.3986
2023-05-06T12:38:57.143Z,24.7518
2023-05-06T12:39:59.831Z,25.3385
2023-05-06T12:41:02.477Z,24.3455
2023-05-06T12:42:05.114Z,23.0584
2023-05-06T12:43:07.866Z,22.3782
2023-05-06T12:44:10.520Z,23.1060
2023-05-06T12:45:13.220Z,23.4991
2023-05-06T12:46:15.926Z,23.7776
2023-05-06T12:47:18.555Z,24.1731
2023-05-06T12:48:21.230Z,24.2600
2023-05-06T12:49:23.887Z,24.2473
2023-05-06T12:50:26.603Z,24.6007
2023-05-06T12:51:29.236Z,24.8542
2023-05-06T12:52:31.894Z,24.3470
2023-05-06T12:53:34.589Z,23.9719
2023-05-06T12:54:37.327Z,22.9514
2023-05-06T12:55:39.935Z,23.0431
2023-05-06T12:56:42.714Z,23.7080